Overview Statistics Trail Chart Weather Telemetry Raw packets
 

This is the latest recevied weather packets stored in our database for station/object HA9OZD-18. If no packets are shown the sender has not sent any weather packets the latest 10 day(s).

<< 1 2 3 4 5 6 7 >>
Time Temp. Humidity Pressure Rain* Wind** Luminosity Snow
1788468313 13.89° C 59% 1017.7 hPa - - - -
1788464712 14.44° C 58% 1017.5 hPa - - - -
1788461114 15° C 59% 1017.7 hPa - - - -
1788457514 15.56° C 56% 1017.6 hPa - - - -
1788453914 16.67° C 51% 1017.5 hPa - - - -
1788450313 17.22° C 49% 1017.6 hPa - - - -
1788446713 18.33° C 44% 1017.7 hPa - - - -
1788443113 19.44° C 41% 1018.1 hPa - - - -
1788439513 19.44° C 36% 1018.1 hPa - - - -
1788435912 22.22° C 34% 1018.3 hPa - - - -
1788432312 21.11° C 41% 1018.7 hPa - - - -
1788428712 19.44° C 46% 1019.1 hPa - - - -
1788425112 18.89° C 48% 1019.2 hPa - - - -
1788421511 17.22° C 53% 1019.3 hPa - - - -
1788418874 16.11° C 54% 1019.1 hPa - - - -
1788417911 16.11° C 54% 1019.1 hPa - - - -
1788414311 15.56° C 57% 1019.2 hPa - - - -
1788410710 13.33° C 68% 1019 hPa - - - -
1788407161 12.78° C 57% 1019.2 hPa - - - -
1788407110 12.78° C 57% 1019.2 hPa - - - -
1788403510 15.56° C 47% 1019 hPa - - - -
1788399910 15.56° C 46% 1019.1 hPa - - - -
1788396310 15.56° C 45% 1019.3 hPa - - - -
1788392751 15.56° C 45% 1019.3 hPa - - - -
1788392719 15.56° C - - - - - -

* Rain since midnight (hover to see other rain measurements)
** Current wind speed in m/s (hover to see current wind gust speed)